Terminal Aerodrome Forecast
Issued by NWS Knoxville/Tri Cities, TN

Home | Current Version | Previous Version | Text Only | Print | Product List | Glossary On
Versions: 1 2 3 4 5 6 7 8 9 10 11 12 13 14 15 16 17 18 19 20
000
FTUS44 KMRX 241124
TAFCHA
TAF
KCHA 241124Z 2412/2512 14005KT 2SM -DZ BR BKN005 OVC015
     FM241230 18003KT 3SM SHRA VCTS BKN008CB OVC020
     FM241500 21013KT P6SM VCTS SCT015 BKN025CB
     FM241800 26014KT P6SM VCSH BKN035
     FM250000 28006KT P6SM SCT050 BKN100
     FM250400 VRB04KT P6SM BKN050=

USA.gov is the U.S. government's official web portal to all federal, state and local government web resources and services.